x

Central Aleutians 230nm Sw Dutch Harbor (46072) Wave Buoy

9:50am - Sat 27th Aug 2016 All times are UTC.

  • Sig Wave height 4.6ft
  • Swell Direction
  • Peak Period 11s
  • Average Period 7s
  • Wind
    11mph, 13mph gusts
  • Sea Temp 53°f
  • Air Temp 53°f
  • Sea Pressure 1021.5mb

More Historic Weather Station data

Upgrade to MSW Pro to gain access to the past 30 days of data for over 8000 Wavebouys and Weather Stations around the globe.

Join Pro

Comparision Forecast

View Surf forecast
   
Sat 08/27 9:50am 4.5ft 11s 7s 11 13 mph 1021.5mb 53f 53f
8:50am 5ft 9s 7s 11 13 mph 1021.9mb 53f 53f
7:50am 4.5ft 11s 7s 11 13 mph 1021.9mb 53f 53f
6:50am 4.5ft 11s 6s 9 11 mph 1022.1mb 53f 53f
5:50am 4.5ft 6s 6s 7 9 mph 1022.3mb 53f 53f
4:50am 4.5ft 6s 6s 4
mph
1022.7mb 54f 53f
3:50am 4.5ft 6s 6s 2 4 mph 1022.8mb 54f 53f
2:50am 5ft 7s 6s 4 7 mph 1023.3mb 54f 53f
1:50am 5.5ft 7s 6s 9
mph
1023.2mb 53f 53f
12:50am 5ft 7s 6s 13 16 mph 1023.5mb 53f 53f
Fri 08/26 11:50pm 5ft 7s 6s 13 16 mph 1023.6mb 53f 53f
10:50pm 5ft 8s 6s 13 16 mph 1023.7mb 53f 53f
9:50pm 5ft 7s 6s 16 18 mph 1024.1mb 53f 53f
8:50pm 4.5ft 7s 6s 13 18 mph 1024.2mb 53f 53f
7:50pm 4.5ft 7s 6s 16 18 mph 1024mb 53f 53f
6:50pm 4.5ft 8s 6s 13 16 mph 1023.9mb 53f 53f
5:50pm 4.5ft 8s 6s 13 18 mph 1023.7mb 52f 53f
4:50pm 6ft 7s 6s 13 18 mph 1023.6mb 52f 52f
3:50pm 5.5ft 7s 5s 16 20 mph 1023.3mb 51f 52f
2:50pm 6ft 7s 6s 18 20 mph 1023.3mb 52f 52f
1:50pm 6ft 6s 6s 18 20 mph 1023.2mb 52f 52f
12:50pm 6ft 7s 6s 18 22 mph 1023.1mb 53f 52f
11:50am 5ft 6s 6s 18 22 mph 1023.5mb 52f 52f
10:50am 5ft 6s 6s 20 22 mph 1023.4mb 52f 52f
9:50am 4ft 6s 6s 18 20 mph 1023.7mb 52f 52f
8:50am 4.5ft 14s 6s 18 20 mph 1023.7mb 52f 52f
7:50am 4.5ft 14s 6s 18 20 mph 1023.6mb 53f 52f
6:50am 4ft 6s 5s 20 22 mph 1023.3mb 53f 52f
5:50am 4ft 14s 5s 18 22 mph 1023.3mb 53f 52f
4:50am 4.5ft 5s 5s 18 20 mph 1023.3mb 53f 52f
3:50am 4.5ft 5s 5s 18 20 mph 1023.2mb 53f 52f
2:50am 4.5ft 5s 5s 18 20 mph 1023.5mb 53f 52f
1:50am 4.5ft 14s 5s 16 20 mph 1023.6mb 53f 52f
12:50am 3.5ft 14s 5s 16 18 mph 1023.6mb 53f 52f
Thu 08/25 11:50pm 3.5ft 13s 5s 18 20 mph 1023.6mb 52f 52f
10:50pm 3ft 15s 6s 16 18 mph 1023.9mb 53f 52f
9:50pm 3ft 9s 6s 16 18 mph 1024.2mb 53f 52f
8:50pm 3.5ft 15s 7s 13 18 mph 1024.2mb 53f 52f
7:50pm 3ft 15s 7s 13 16 mph 1024mb 53f 52f
6:50pm 3ft 15s 7s 9
mph
1024.1mb 53f 52f
5:50pm 3.5ft 15s 7s 9 13 mph 1023.8mb 53f 51f
4:50pm 4ft 8s 7s 7 9 mph 1023.5mb 53f 50f
3:50pm 4.5ft 15s 6s 4 7 mph 1023.3mb 53f 50f
2:50pm 4.5ft 8s 6s 2 4 mph 1023.2mb 53f 49f
1:50pm 4.5ft 8s 7s 4 7 mph 1023.2mb 53f 50f
12:50pm 4.5ft 7s 7s 2 4 mph 1023.2mb 53f 50f
11:50am 4.5ft 8s 7s 2 4 mph 1023mb 53f 49f
10:50am 4.5ft 8s 8s 2 4 mph 1022.7mb 53f 49f
9:50am 4ft 8s 7s 4 7 mph 1022.1mb 53f 49f
8:50am 4ft 9s 8s 7 9 mph 1022.2mb 53f 49f
7:50am 3.5ft 9s 7s 9 11 mph 1022.2mb 52f 49f
6:50am 4.5ft 9s 7s 11
mph
1021.7mb 53f 49f
5:50am 4.5ft 9s 6s 11 16 mph 1021.1mb 53f 49f
4:50am 5ft 9s 6s 11 13 mph 1020.7mb 53f 49f
2:50am 6ft 8s 6s 13 16 mph 1020mb 53f 49f
1:50am 6ft 8s 7s 13 16 mph 1019.9mb 53f 49f
12:50am 5.5ft 9s 7s 13 18 mph 1019.6mb 53f 48f
Wed 08/24 11:50pm 5.5ft 9s 7s 16 20 mph 1019.2mb 52f 49f
10:50pm 6ft 9s 7s 18 20 mph 1019mb 52f 49f
9:50pm 5ft 10s 6s 16 20 mph 1018.8mb 52f 49f
8:50pm 5.5ft 11s 7s 18 22 mph 1018.6mb 52f 48f
7:50pm 6ft 10s 7s 20 22 mph 1018.2mb 51f 48f
6:50pm 6ft 11s 7s 18 22 mph 1017.7mb 51f 48f
5:50pm 7ft 11s 7s 20 22 mph 1017.2mb 51f 48f
4:50pm 7ft 11s  -  18 22 mph 1016.8mb 51f 48f
3:50pm 8.5ft 11s 7s 20 25 mph 1016.3mb 51f 48f
2:50pm 8ft 10s 7s 20 25 mph 1015.9mb 51f 49f
1:50pm 8.5ft 11s 7s 22 27 mph 1015.8mb 51f 48f
12:50pm 9ft 11s 7s 20 25 mph 1015.6mb 51f 49f
11:50am 8ft 8s 7s 20 22 mph 1015.6mb 52f 49f
9:50am 9ft 10s 8s 20 25 mph 1015.1mb 51f 49f
8:50am 8.5ft 10s 7s 20 25 mph 1014.5mb 51f 49f
7:50am 8ft 11s 7s 22 25 mph 1013.8mb 51f 49f
6:50am 8ft 9s 7s 25 29 mph 1013.2mb 52f 49f
5:50am 7ft 11s 6s 25 31 mph 1012.5mb 53f 49f
4:50am 7ft 10s 6s 25 31 mph 1011.9mb 53f 50f
3:50am 7ft 10s 6s 25 31 mph 1011.5mb 53f 50f
2:50am 7.5ft 9s 6s 25 29 mph 1011.1mb 52f 50f
1:50am 7.5ft 8s 6s 25 31 mph 1010.8mb 52f 50f
12:50am 7ft 9s 6s 25 29 mph 1010.6mb 52f 50f
Tue 08/23 11:50pm 6ft 8s 6s 22 27 mph 1010.4mb 52f 50f
10:50pm 5.5ft 8s 6s 22 27 mph 1009.9mb 52f 50f
9:50pm 5.5ft 13s 6s 18 22 mph 1009.2mb 52f 50f
8:50pm 5ft 8s 5s 20 25 mph 1008.6mb 51f 50f
7:50pm 5ft 9s 6s 20 27 mph 1008mb 52f 50f
6:50pm 4.5ft 8s 5s 25 29 mph 1007.3mb 52f 50f
5:50pm 5ft 14s 5s 25 29 mph 1006.6mb 52f 50f
4:50pm 4.5ft 7s 6s 22 25 mph 1006.2mb 52f 50f
3:50pm 4.5ft 8s 6s 20 25 mph 1005.3mb 52f 49f
2:50pm 4.5ft 8s 6s 18 22 mph 1005mb 52f 50f
1:50pm 4.5ft 7s 6s 16 20 mph 1004.8mb 53f 50f
12:50pm 4.5ft 7s 6s 13 16 mph 1004.3mb 53f 51f
11:50am 4.5ft 5s 6s 13 16 mph 1004.3mb 53f 51f